Main page
METAR-TAF:

METAR-TAF

Airports :

Büchel Air Base

Büchel, Germany

latitude: 50-10N, longitude: 007-04E, elevation: 478 m

Current weather observation

The report was made 47 minutes ago, at 13:20 UTC
Wind 14 kt from the Southwest
Temperature 5°C
Humidity 81%
Pressure 996 hPa
Visibility 10 km or more
Broken clouds at a height of 1800 ft

METAR: ETSB 211320Z 22014KT 9999 BKN018 05/02 Q0996 WHT WHT BECMG BLU

Time: 15:07 (14:07 UTC)

Forecast

The report was made 23 hours and 47 minutes ago, at 14:20 UTC
Forecast valid from 20 at 15 UTC to 20 at 24 UTC
Wind 12 kt from the Southwest with gusts up to 25 kt
Visibility 10 km or more
Few clouds at a height of 10000 ft
Broken clouds at a height of 15000 ft

TAF: ETSB 201420Z 2015/2024 22012G25KT 9999 NSW FEW100 BKN150 BY ETGL

Weather observations and forecasts of more than 4000 airports (METAR and TAF reports).

The available stations are represented by yellow and red dots on the map.

Hover mouse over dot to see the name of the station.

Then click to see weather observations and forecasts.

To change the map : click on the green buttons with a black cross to zoom in, on the green button with a dash to zoom out, or on the green arrows for adjacent maps.


METAR-TAF: